Kezdőlap
METAR-TAF:

METAR-TAF

Repülőterek :

Radom-Sadków

Radom, Lengyelország

földrajzi szélesség: 51-23-21N, földrajzi hosszúság: 21-12-49E, magasság: 186 m

Jelenlegi meteorológiai megfigyelések

A jelentés 38 perccel ezelõtt készült, 20:30 UTC
Délkeleti szél 3 kt
Hőmérséklet 17°C
Páratartalom 52%
Légköri nyomás 1019 hPa
Látótávolság 10 km, vagy több
felhőtlen 1500 m magasságban, és nincs gomolyfelhõ

METAR: EPRA 272030Z 13003KT CAVOK 17/07 Q1019

Idő: 23:08 (21:08 UTC)

Előrejelzés

A jelentés 38 perccel ezelõtt készült, 20:30 UTC
Az előrejelzés 27-én 21 óra UTC és 28-én 06 óra UTC között érvényes
Kelet-délkeleti szél 6 kt
Látótávolság 10 km, vagy több
felhőtlen 1500 m magasságban, és nincs gomolyfelhõ

TAF: EPRA 272030Z 2721/2806 12006KT CAVOK

Meteorológiai megfigyelések és előrejelzések több, mint 4000 repülőtéren (METAR és TAF jelentéseket).

A térképen piros és sárga pontok jelzik az elérhető meteorológiai állomásokat.

Mozgassa az egeret a pont fölött, hogy megjelenjen az állomás neve.

Azután kattintson az időjárási megfigyelések és előrejelzések megtekintéséhez.

A térkép megváltoztatása: kattintson a fekete keresztel jelölt zöld gombra ráközelítéshez, a vonallal jelölt zöld gombra távolításhoz, vagy a zöld nyilakra a szomszédos térképek eléréséhez.


METAR-TAF: